»·PEaware :: DAL5544 KLAX-KLAS

DAL5544 :: KLAX-KLAS

FLIGHT INFORMATION

Flight Status: Arrived
Operator:
Delta Air Lines
More flights by this operator :: More flights under this callsign
Pilot: Blake E. (25579)
Aircraft: BOEING 737-800
(B738)
More flights by this aircraft type
Origin: KLAX Los Angeles Intl
United States
Destination: KLAS McCarran Intl
United States
More flights between these airports :: More routes between these airports
Route: OSHNN8 MISEN KEPEC6
File this flight plan on PilotEdge
Remarks:
Altitude:
(Current/Filed)
33,000ft
Speed:
(Current/Filed)
320kts
Departed: 04-Apr-20 08:13 PM
Arrived: 04-Apr-20 09:08 PM
Distance/Time
Traveled:
205nm/0:55
Distance/Time
To Go:
Arrived

Flight Plot

Page will automatically refresh every two minutes.

Flight plan parsing failed; only flown route is shown


Map Options




Map Legend


Flown Route
Filed Route
Departure Airport
Arrival Airport
Navaid (VOR, NDB)
Fix

Horizontal Profiles

Position Reports

Time Latitude Longitude Heading Altitude Ground
Speed
04-Apr-20 19:28 33.946731 -118.403407 262 126ft 0kts
04-Apr-20 19:29 33.946731 -118.403407 262 126ft 0kts
04-Apr-20 19:30 33.946731 -118.403407 262 126ft 0kts
04-Apr-20 19:31 33.946731 -118.403407 262 126ft 0kts
04-Apr-20 19:32 33.946731 -118.403407 262 126ft 0kts
04-Apr-20 19:33 33.946731 -118.403407 262 126ft 0kts
04-Apr-20 19:34 33.946731 -118.403407 262 126ft 0kts
04-Apr-20 19:35 33.946731 -118.403407 262 126ft 0kts
04-Apr-20 19:36 33.946731 -118.403407 262 126ft 0kts
04-Apr-20 19:37 33.946731 -118.403407 262 126ft 0kts
04-Apr-20 19:38 33.946731 -118.403407 262 126ft 0kts
04-Apr-20 19:39 33.946731 -118.403407 262 126ft 0kts
04-Apr-20 19:40 33.946731 -118.403407 262 126ft 0kts
04-Apr-20 19:41 33.946731 -118.403407 262 126ft 0kts
04-Apr-20 19:42 33.946731 -118.403407 262 126ft 0kts
04-Apr-20 19:43 33.946731 -118.403407 262 126ft 0kts
04-Apr-20 19:44 33.946731 -118.403407 262 126ft 0kts
04-Apr-20 19:45 33.946731 -118.403407 262 126ft 0kts
04-Apr-20 19:46 33.946731 -118.403407 262 126ft 0kts
04-Apr-20 19:47 33.946731 -118.403407 262 126ft 0kts
04-Apr-20 19:48 33.946731 -118.403407 262 126ft 0kts
04-Apr-20 19:49 33.946731 -118.403407 262 126ft 0kts
04-Apr-20 19:50 33.946760 -118.403140 262 126ft 2kts
04-Apr-20 19:51 33.946676 -118.402515 348 126ft 0kts
04-Apr-20 19:52 33.946596 -118.402508 353 126ft 0kts
04-Apr-20 19:53 33.946596 -118.402508 353 126ft 0kts
04-Apr-20 19:54 33.946596 -118.402508 353 126ft 0kts
04-Apr-20 19:55 33.946596 -118.402508 354 126ft 0kts
04-Apr-20 19:56 33.946596 -118.402508 354 126ft 0kts
04-Apr-20 19:57 33.946596 -118.402508 354 126ft 0kts
04-Apr-20 19:58 33.946596 -118.402508 354 126ft 0kts
04-Apr-20 19:59 33.946596 -118.402508 354 126ft 0kts
04-Apr-20 20:00 33.946596 -118.402508 354 126ft 0kts
04-Apr-20 20:01 33.946596 -118.402508 354 126ft 0kts
04-Apr-20 20:02 33.946596 -118.402508 353 126ft 0kts
04-Apr-20 20:03 33.946596 -118.402508 354 126ft 0kts
04-Apr-20 20:04 33.946596 -118.402508 354 126ft 0kts
04-Apr-20 20:05 33.946596 -118.402508 354 126ft 0kts
04-Apr-20 20:06 33.946596 -118.402508 354 126ft 0kts
04-Apr-20 20:07 33.946596 -118.402508 354 126ft 0kts
04-Apr-20 20:08 33.948879 -118.402815 44 125ft 10kts
04-Apr-20 20:09 33.949397 -118.399409 50 121ft 0kts
04-Apr-20 20:10 33.949397 -118.399409 50 121ft 0kts
04-Apr-20 20:11 33.950290 -118.399306 320 120ft 15kts
04-Apr-20 20:12 33.947309 -118.432325 264 1013ft 170kts
04-Apr-20 20:13 33.942540 -118.497144 268 2846ft 234kts
04-Apr-20 20:14 33.936697 -118.580142 264 4982ft 256kts
04-Apr-20 20:15 33.895470 -118.641445 189 5009ft 263kts
04-Apr-20 20:16 33.826016 -118.606535 153 7850ft 285kts
04-Apr-20 20:17 33.754981 -118.559029 155 10668ft 315kts
04-Apr-20 20:18 33.686005 -118.479501 115 12696ft 373kts
04-Apr-20 20:19 33.650520 -118.358893 104 15363ft 392kts
04-Apr-20 20:20 33.647931 -118.225875 76 17761ft 410kts
04-Apr-20 20:21 33.715284 -118.117142 34 19946ft 418kts
04-Apr-20 20:22 33.809800 -118.031915 34 21926ft 432kts
04-Apr-20 20:23 33.907742 -117.943792 34 23731ft 445kts
04-Apr-20 20:24 34.007375 -117.852588 34 23952ft 446kts
04-Apr-20 20:25 34.099934 -117.752221 45 23961ft 451kts
04-Apr-20 20:26 34.180724 -117.639466 48 26201ft 440kts
04-Apr-20 20:27 34.257745 -117.526943 48 28505ft 429kts
04-Apr-20 20:28 34.331591 -117.417225 49 30809ft 412kts
04-Apr-20 20:29 34.401186 -117.312918 49 32829ft 387kts
04-Apr-20 20:30 34.471227 -117.208137 49 32912ft 417kts
04-Apr-20 20:31 34.547310 -117.093938 49 32898ft 451kts
04-Apr-20 20:32 34.629857 -116.973523 48 32864ft 479kts
04-Apr-20 20:33 34.716805 -116.846705 49 32800ft 494kts
04-Apr-20 20:34 34.804039 -116.719013 48 30317ft 484kts
04-Apr-20 20:35 34.882580 -116.620066 39 28335ft 461kts
04-Apr-20 20:36 34.979401 -116.523952 36 26418ft 452kts
04-Apr-20 20:37 35.078686 -116.427214 37 24346ft 449kts
04-Apr-20 20:38 35.162024 -116.328326 45 23832ft 455kts
04-Apr-20 20:39 35.244927 -116.225176 45 23816ft 451kts
04-Apr-20 20:40 35.330007 -116.118539 45 21909ft 428kts
04-Apr-20 20:41 35.411368 -116.016084 46 19705ft 417kts
04-Apr-20 20:42 35.492522 -115.913397 46 16738ft 420kts
04-Apr-20 20:43 35.568165 -115.817355 46 14830ft 374kts
04-Apr-20 20:44 35.641297 -115.724286 46 13421ft 350kts
04-Apr-20 20:45 35.705296 -115.642135 46 13012ft 337kts
04-Apr-20 20:46 35.781466 -115.580173 14 13015ft 332kts
04-Apr-20 20:48 35.872273 -115.569079 359 13010ft 328kts
04-Apr-20 20:49 35.960600 -115.545771 36 13005ft 334kts
04-Apr-20 20:50 36.007357 -115.450825 70 11578ft 327kts
04-Apr-20 20:51 36.028387 -115.347596 95 10791ft 294kts
04-Apr-20 20:52 36.021944 -115.248153 99 9587ft 289kts
04-Apr-20 20:53 36.014973 -115.149693 98 8411ft 284kts
04-Apr-20 20:54 36.009085 -115.060849 97 8006ft 253kts
04-Apr-20 20:55 36.004278 -114.979379 97 8009ft 247kts
04-Apr-20 20:56 35.999243 -114.895110 97 8009ft 246kts
04-Apr-20 20:57 35.994021 -114.810436 98 8013ft 246kts
04-Apr-20 20:58 35.988421 -114.726251 98 8009ft 246kts
04-Apr-20 20:59 35.985166 -114.641641 77 8016ft 250kts
04-Apr-20 21:00 36.040645 -114.605420 334 8024ft 254kts
04-Apr-20 21:01 36.069416 -114.674856 270 8011ft 238kts
04-Apr-20 21:02 36.073554 -114.755974 266 8013ft 234kts
04-Apr-20 21:03 36.073522 -114.836590 266 7470ft 237kts
04-Apr-20 21:04 36.073502 -114.922503 267 5442ft 259kts
04-Apr-20 21:05 36.073649 -115.002896 267 3850ft 201kts
04-Apr-20 21:05 36.073654 -115.055186 266 3789ft 181kts
04-Apr-20 21:07 36.073628 -115.123601 267 2122ft 155kts
04-Apr-20 21:08 36.074636 -115.145751 303 2105ft 0kts
04-Apr-20 21:08 36.076847 -115.146545 359 2106ft 9kts
04-Apr-20 21:09 36.077686 -115.146396 65 2104ft 3kts
04-Apr-20 21:10 36.078243 -115.141621 358 2087ft 11kts
04-Apr-20 21:11 36.079107 -115.140985 78 2083ft 0kts
04-Apr-20 21:12 36.079565 -115.140051 10 2079ft 2kts
04-Apr-20 21:13 36.079867 -115.139982 10 2078ft 0kts

Navigation Log

Ident Type
Flight plan parsing failed, navigation log unavailable